createdAt,value
2023-05-22T00:00:07.403Z,26.31
2023-05-22T00:01:07.404Z,26.31
2023-05-22T00:02:07.450Z,26.32
2023-05-22T00:03:07.425Z,26.31
2023-05-22T00:04:07.425Z,26.32
2023-05-22T00:05:07.462Z,26.28
2023-05-22T00:06:07.452Z,26.31
2023-05-22T00:07:07.464Z,26.31
2023-05-22T00:08:07.482Z,26.28
2023-05-22T00:09:07.506Z,26.30
2023-05-22T00:10:07.488Z,26.28
2023-05-22T00:11:07.512Z,26.30
2023-05-22T00:12:07.511Z,26.28
2023-05-22T00:13:07.513Z,26.30
2023-05-22T00:14:07.532Z,26.31
2023-05-22T00:15:07.557Z,26.30
2023-05-22T00:16:07.563Z,26.30
2023-05-22T00:17:07.608Z,26.28
2023-05-22T00:18:07.633Z,26.28
2023-05-22T00:19:07.594Z,26.28
2023-05-22T00:20:07.588Z,26.30
2023-05-22T00:21:07.595Z,26.30
2023-05-22T00:22:07.603Z,26.27
2023-05-22T00:23:07.619Z,26.28
2023-05-22T00:24:07.622Z,26.30
2023-05-22T00:25:07.657Z,26.31
2023-05-22T00:26:07.630Z,26.30
2023-05-22T00:27:07.643Z,26.28
2023-05-22T00:28:07.648Z,26.28
2023-05-22T00:29:07.670Z,26.28
2023-05-22T00:30:07.686Z,26.27
2023-05-22T00:31:07.693Z,26.27
2023-05-22T00:32:07.715Z,26.27
2023-05-22T00:33:07.827Z,26.28
2023-05-22T00:34:07.750Z,26.25
2023-05-22T00:35:07.733Z,26.27
2023-05-22T00:36:07.728Z,26.25
2023-05-22T00:37:07.762Z,26.27
2023-05-22T00:38:07.771Z,26.25
2023-05-22T00:39:07.775Z,26.28
2023-05-22T00:40:07.766Z,26.22
2023-05-22T00:41:07.798Z,26.27
2023-05-22T00:42:07.810Z,26.27
2023-05-22T00:43:07.808Z,26.28
2023-05-22T00:44:07.853Z,26.24
2023-05-22T00:45:07.850Z,26.25
2023-05-22T00:46:07.897Z,26.28
2023-05-22T00:47:07.878Z,26.24
2023-05-22T00:48:07.937Z,26.25
2023-05-22T00:49:07.906Z,26.24
2023-05-22T00:50:07.895Z,26.25
2023-05-22T00:51:07.904Z,26.24
2023-05-22T00:52:07.927Z,26.25
2023-05-22T00:53:07.925Z,26.22
2023-05-22T00:54:07.935Z,26.24
2023-05-22T00:55:07.961Z,26.24
2023-05-22T00:56:07.966Z,26.22
2023-05-22T00:57:07.993Z,26.24
2023-05-22T00:58:07.977Z,26.24
2023-05-22T00:59:08.004Z,26.25
2023-05-22T01:00:08.023Z,26.24
2023-05-22T01:01:08.032Z,26.22
2023-05-22T01:02:08.096Z,26.25
2023-05-22T01:03:08.241Z,26.24
2023-05-22T01:04:08.244Z,26.22
2023-05-22T01:05:08.090Z,26.22
2023-05-22T01:06:08.093Z,26.24
2023-05-22T01:07:08.087Z,26.24
2023-05-22T01:08:08.114Z,26.21
2023-05-22T01:09:08.110Z,26.21
2023-05-22T01:10:08.099Z,26.25
2023-05-22T01:11:08.118Z,26.22
2023-05-22T01:12:08.149Z,26.24
2023-05-22T01:13:08.157Z,26.22
2023-05-22T01:14:08.169Z,26.18
2023-05-22T01:15:08.178Z,26.20
2023-05-22T01:16:08.234Z,26.21
2023-05-22T01:17:08.220Z,26.21
2023-05-22T01:18:08.231Z,26.21
2023-05-22T01:19:08.248Z,26.22
2023-05-22T01:20:08.256Z,26.21
2023-05-22T01:21:08.264Z,26.20
2023-05-22T01:22:08.284Z,26.21
2023-05-22T01:23:08.277Z,26.21
2023-05-22T01:24:08.302Z,26.22
2023-05-22T01:25:08.298Z,26.21
2023-05-22T01:26:08.331Z,26.18
2023-05-22T01:27:08.342Z,26.21
2023-05-22T01:28:08.355Z,26.21
2023-05-22T01:29:08.349Z,26.21
2023-05-22T01:30:08.361Z,26.20
2023-05-22T01:31:08.376Z,26.20
2023-05-22T01:32:08.406Z,26.20
2023-05-22T01:33:08.480Z,26.20
2023-05-22T01:34:08.536Z,26.20
2023-05-22T01:35:08.426Z,26.22
2023-05-22T01:36:08.452Z,26.20
2023-05-22T01:37:08.483Z,26.20
2023-05-22T01:38:08.467Z,26.21
2023-05-22T01:39:08.476Z,26.20
2023-05-22T01:40:08.504Z,26.20
2023-05-22T01:41:08.519Z,26.18
2023-05-22T01:42:08.545Z,26.20
2023-05-22T01:43:08.554Z,26.20
2023-05-22T01:44:08.558Z,26.20
2023-05-22T01:45:08.566Z,26.18
2023-05-22T01:46:08.673Z,26.18
2023-05-22T01:47:08.590Z,26.20
2023-05-22T01:48:08.684Z,26.20
2023-05-22T01:49:08.604Z,26.18
2023-05-22T01:50:08.629Z,26.17
2023-05-22T01:51:08.650Z,26.20
2023-05-22T01:52:08.670Z,26.18
2023-05-22T01:53:08.672Z,26.17
2023-05-22T01:54:08.696Z,26.20
2023-05-22T01:55:08.698Z,26.18
2023-05-22T01:56:08.709Z,26.20
2023-05-22T01:57:08.732Z,26.17
2023-05-22T01:58:08.752Z,26.15
2023-05-22T01:59:08.733Z,26.17
2023-05-22T02:00:08.756Z,26.18
2023-05-22T02:01:09.201Z,26.18
2023-05-22T02:02:08.816Z,26.18
2023-05-22T02:03:08.915Z,26.15
2023-05-22T02:04:08.819Z,26.17
2023-05-22T02:05:08.817Z,26.18
2023-05-22T02:06:08.827Z,26.17
2023-05-22T02:07:10.757Z,26.17
2023-05-22T02:08:08.857Z,26.14
2023-05-22T02:09:08.831Z,26.15
2023-05-22T02:10:08.824Z,26.15
2023-05-22T02:11:08.812Z,26.14
2023-05-22T02:12:08.842Z,26.12
2023-05-22T02:13:08.875Z,26.12
2023-05-22T02:14:08.799Z,26.15
2023-05-22T02:15:08.816Z,26.17
2023-05-22T02:16:08.844Z,26.15
2023-05-22T02:17:08.791Z,26.14
2023-05-22T02:18:08.860Z,26.17
2023-05-22T02:19:08.830Z,26.12
2023-05-22T02:20:08.774Z,26.15
2023-05-22T02:21:08.800Z,26.17
2023-05-22T02:22:08.752Z,26.17
2023-05-22T02:23:08.751Z,26.17
2023-05-22T02:24:08.738Z,26.15
2023-05-22T02:25:08.718Z,26.14
2023-05-22T02:26:08.721Z,26.12
2023-05-22T02:27:08.721Z,26.14
2023-05-22T02:28:08.712Z,26.12
2023-05-22T02:29:08.695Z,26.11
2023-05-22T02:30:08.704Z,26.12
2023-05-22T02:31:08.719Z,26.11
2023-05-22T02:32:08.710Z,26.14
2023-05-22T02:33:08.734Z,26.12
2023-05-22T02:34:08.656Z,26.15
2023-05-22T02:35:08.668Z,26.12
2023-05-22T02:36:08.660Z,26.14
2023-05-22T02:37:08.663Z,26.11
2023-05-22T02:38:08.646Z,26.11
2023-05-22T02:39:08.614Z,26.12
2023-05-22T02:40:08.638Z,26.12
2023-05-22T02:41:08.658Z,26.12
2023-05-22T02:42:08.595Z,26.12
2023-05-22T02:43:08.614Z,26.12
2023-05-22T02:44:08.600Z,26.14
2023-05-22T02:45:08.625Z,26.14
2023-05-22T02:46:08.597Z,26.14
2023-05-22T02:47:08.567Z,26.11
2023-05-22T02:48:08.615Z,26.09
2023-05-22T02:49:08.543Z,26.11
2023-05-22T02:50:08.556Z,26.11
2023-05-22T02:51:08.535Z,26.11
2023-05-22T02:52:08.550Z,26.14
2023-05-22T02:53:08.538Z,26.11
2023-05-22T02:54:08.521Z,26.14
2023-05-22T02:55:08.521Z,26.12
2023-05-22T02:56:08.494Z,26.11
2023-05-22T02:57:08.485Z,26.11
2023-05-22T02:58:08.485Z,26.11
2023-05-22T02:59:08.487Z,26.12
2023-05-22T03:00:08.487Z,26.11
2023-05-22T03:01:08.452Z,26.09
2023-05-22T03:02:08.531Z,26.11
2023-05-22T03:03:08.559Z,26.12
2023-05-22T03:04:08.480Z,26.08
2023-05-22T03:05:08.439Z,26.09
2023-05-22T03:06:08.423Z,26.09
2023-05-22T03:07:08.436Z,26.08
2023-05-22T03:08:08.415Z,26.09
2023-05-22T03:09:08.400Z,26.11
2023-05-22T03:10:08.407Z,26.08
2023-05-22T03:11:08.429Z,26.09
2023-05-22T03:12:08.380Z,26.09
2023-05-22T03:13:08.381Z,26.12
2023-05-22T03:14:08.382Z,26.09
2023-05-22T03:15:08.397Z,26.11
2023-05-22T03:16:08.427Z,26.09
2023-05-22T03:17:08.406Z,26.08
2023-05-22T03:18:08.391Z,26.08
2023-05-22T03:19:08.363Z,26.09
2023-05-22T03:20:08.340Z,26.09
2023-05-22T03:21:08.331Z,26.11
2023-05-22T03:22:08.330Z,26.08
2023-05-22T03:23:08.303Z,26.11
2023-05-22T03:24:08.332Z,26.08
2023-05-22T03:25:08.296Z,26.08
2023-05-22T03:26:08.327Z,26.08
2023-05-22T03:27:08.369Z,26.08
2023-05-22T03:28:08.379Z,26.08
2023-05-22T03:29:08.524Z,26.08
2023-05-22T03:30:08.427Z,26.08
2023-05-22T03:31:08.450Z,26.08
2023-05-22T03:32:08.507Z,26.08
2023-05-22T03:33:08.542Z,26.07
2023-05-22T03:34:08.720Z,26.08
2023-05-22T03:35:08.585Z,26.08
2023-05-22T03:36:08.584Z,26.08
2023-05-22T03:37:08.615Z,26.07
2023-05-22T03:38:08.635Z,26.08
2023-05-22T03:39:08.677Z,26.08
2023-05-22T03:40:08.709Z,26.05
2023-05-22T03:41:08.731Z,26.08
2023-05-22T03:42:08.751Z,26.05
2023-05-22T03:43:08.786Z,26.07
2023-05-22T03:44:08.814Z,26.07
2023-05-22T03:45:08.839Z,26.07
2023-05-22T03:46:08.963Z,26.08
2023-05-22T03:47:08.904Z,26.08
2023-05-22T03:48:08.975Z,26.05
2023-05-22T03:49:08.937Z,26.05
2023-05-22T03:50:08.965Z,26.07
2023-05-22T03:51:08.971Z,26.07
2023-05-22T03:52:09.004Z,26.07
2023-05-22T03:53:09.048Z,26.07
2023-05-22T03:54:09.073Z,26.07
2023-05-22T03:55:09.116Z,26.09
2023-05-22T03:56:09.132Z,26.07
2023-05-22T03:57:09.138Z,26.05
2023-05-22T03:58:09.168Z,26.08
2023-05-22T03:59:09.194Z,26.05
2023-05-22T04:00:09.216Z,26.07
2023-05-22T04:01:09.252Z,26.08
2023-05-22T04:02:09.290Z,26.08
2023-05-22T04:03:09.342Z,26.05
2023-05-22T04:04:09.319Z,26.07
2023-05-22T04:05:09.356Z,26.07
2023-05-22T04:06:09.351Z,26.08
2023-05-22T04:07:09.375Z,26.08
2023-05-22T04:08:09.421Z,26.08
2023-05-22T04:09:09.423Z,26.05
2023-05-22T04:10:09.453Z,26.05
2023-05-22T04:11:09.517Z,26.07
2023-05-22T04:12:09.512Z,26.08
2023-05-22T04:13:09.530Z,26.08
2023-05-22T04:14:09.548Z,26.05
2023-05-22T04:15:09.569Z,26.07
2023-05-22T04:16:09.662Z,26.08
2023-05-22T04:17:09.591Z,26.07
2023-05-22T04:18:09.652Z,26.09
2023-05-22T04:19:09.721Z,26.08
2023-05-22T04:20:09.661Z,26.09
2023-05-22T04:21:09.884Z,26.08
2023-05-22T04:22:09.715Z,26.07
2023-05-22T04:23:09.746Z,26.07
2023-05-22T04:24:09.768Z,26.07
2023-05-22T04:25:09.751Z,26.09
2023-05-22T04:26:09.785Z,26.08
2023-05-22T04:27:09.795Z,26.11
2023-05-22T04:28:09.825Z,26.08
2023-05-22T04:29:09.861Z,26.08
2023-05-22T04:30:09.878Z,26.08
2023-05-22T04:31:09.969Z,26.11
2023-05-22T04:32:09.941Z,26.09
2023-05-22T04:33:09.968Z,26.09
2023-05-22T04:34:09.958Z,26.11
2023-05-22T04:35:10.017Z,26.12
2023-05-22T04:36:12.353Z,26.09
2023-05-22T04:37:10.211Z,26.09
2023-05-22T04:38:10.206Z,26.11
2023-05-22T04:39:10.206Z,26.08
2023-05-22T04:40:10.260Z,26.09
2023-05-22T04:41:10.260Z,26.08
2023-05-22T04:42:10.281Z,26.12
2023-05-22T04:43:10.308Z,26.11
2023-05-22T04:44:10.322Z,26.12
2023-05-22T04:45:10.339Z,26.11
2023-05-22T04:46:10.479Z,26.12
2023-05-22T04:47:10.423Z,26.12
2023-05-22T04:48:10.411Z,26.14
2023-05-22T04:49:10.461Z,26.18
2023-05-22T04:50:10.442Z,26.18
2023-05-22T04:51:10.455Z,26.20
2023-05-22T04:52:10.460Z,26.18
2023-05-22T04:53:10.478Z,26.22
2023-05-22T04:54:10.505Z,26.21
2023-05-22T04:55:10.528Z,26.21
2023-05-22T04:56:11.852Z,26.24
2023-05-22T04:57:10.680Z,26.22
2023-05-22T04:58:10.646Z,26.24
2023-05-22T04:59:10.651Z,26.24
2023-05-22T05:00:10.664Z,26.22
2023-05-22T05:01:10.682Z,26.22
2023-05-22T05:02:10.661Z,26.25
2023-05-22T05:03:10.747Z,26.22
2023-05-22T05:04:10.755Z,26.22
2023-05-22T05:05:10.706Z,26.24
2023-05-22T05:06:10.717Z,26.24
2023-05-22T05:07:10.743Z,26.25
2023-05-22T05:08:10.756Z,26.27
2023-05-22T05:09:10.753Z,26.25
2023-05-22T05:10:10.779Z,26.27
2023-05-22T05:11:10.798Z,26.22
2023-05-22T05:12:10.818Z,26.22
2023-05-22T05:13:10.820Z,26.24
2023-05-22T05:14:10.844Z,26.24
2023-05-22T05:15:10.846Z,26.22
2023-05-22T05:16:10.899Z,26.24
2023-05-22T05:17:10.882Z,26.22
2023-05-22T05:18:11.383Z,26.24
2023-05-22T05:19:10.944Z,26.22
2023-05-22T05:20:10.913Z,26.21
2023-05-22T05:21:10.946Z,26.22
2023-05-22T05:22:10.940Z,26.22
2023-05-22T05:23:10.952Z,26.25
2023-05-22T05:24:10.976Z,26.24
2023-05-22T05:25:11.868Z,26.25
2023-05-22T05:26:11.014Z,26.27
2023-05-22T05:27:11.003Z,26.25
2023-05-22T05:28:11.042Z,26.24
2023-05-22T05:29:11.030Z,26.25
2023-05-22T05:30:11.046Z,26.24
2023-05-22T05:31:11.068Z,26.24
2023-05-22T05:32:11.145Z,26.24
2023-05-22T05:33:11.135Z,26.24
2023-05-22T05:34:11.103Z,26.27
2023-05-22T05:35:11.124Z,26.27
2023-05-22T05:36:11.124Z,26.31
2023-05-22T05:37:11.151Z,26.31
2023-05-22T05:38:11.383Z,26.38
2023-05-22T05:39:11.139Z,26.36
2023-05-22T05:40:11.143Z,26.39
2023-05-22T05:41:11.163Z,26.42
2023-05-22T05:42:11.156Z,26.45
2023-05-22T05:43:11.144Z,26.48
2023-05-22T05:44:11.135Z,26.48
2023-05-22T05:45:11.144Z,26.52
2023-05-22T05:46:11.179Z,26.53
2023-05-22T05:47:11.151Z,26.56
2023-05-22T05:48:11.165Z,26.58
2023-05-22T05:49:11.236Z,26.60
2023-05-22T05:50:11.222Z,26.60
2023-05-22T05:51:11.201Z,26.62
2023-05-22T05:52:11.232Z,26.66
2023-05-22T05:53:11.300Z,26.69
2023-05-22T05:54:11.308Z,26.69
2023-05-22T05:55:11.310Z,26.72
2023-05-22T05:56:11.355Z,26.75
2023-05-22T05:57:11.428Z,26.73
2023-05-22T05:58:11.476Z,26.76
2023-05-22T05:59:11.521Z,26.79
2023-05-22T06:00:11.575Z,26.82
2023-05-22T06:01:11.627Z,26.82
2023-05-22T06:02:11.705Z,26.82
2023-05-22T06:03:11.854Z,26.85
2023-05-22T06:04:11.809Z,26.85
2023-05-22T06:05:11.853Z,26.87
2023-05-22T06:06:11.870Z,26.90
2023-05-22T06:07:11.889Z,26.89
2023-05-22T06:08:11.935Z,26.92
2023-05-22T06:09:11.959Z,26.93
2023-05-22T06:10:12.017Z,26.96
2023-05-22T06:11:12.042Z,26.97
2023-05-22T06:12:12.099Z,26.97
2023-05-22T06:13:12.211Z,26.99
2023-05-22T06:14:12.184Z,27.02
2023-05-22T06:15:12.249Z,26.99
2023-05-22T06:16:12.319Z,27.03
2023-05-22T06:17:12.350Z,27.03
2023-05-22T06:18:12.947Z,27.02
2023-05-22T06:19:12.538Z,27.03
2023-05-22T06:20:12.534Z,27.07
2023-05-22T06:21:12.634Z,27.07
2023-05-22T06:22:12.712Z,27.07
2023-05-22T06:23:12.888Z,27.10
2023-05-22T06:24:12.828Z,27.10
2023-05-22T06:25:12.881Z,27.11
2023-05-22T06:26:12.954Z,27.13
2023-05-22T06:27:13.385Z,27.13
2023-05-22T06:28:13.070Z,27.15
2023-05-22T06:29:13.126Z,27.17
2023-05-22T06:30:13.165Z,27.17
2023-05-22T06:31:13.219Z,27.18
2023-05-22T06:32:13.317Z,27.18
2023-05-22T06:33:13.462Z,27.18
2023-05-22T06:34:13.448Z,27.22
2023-05-22T06:35:13.481Z,27.20
2023-05-22T06:36:13.544Z,27.20
2023-05-22T06:37:13.879Z,27.22
2023-05-22T06:38:13.655Z,27.23
2023-05-22T06:39:13.741Z,27.20
2023-05-22T06:40:13.803Z,27.18
2023-05-22T06:41:13.857Z,27.18
2023-05-22T06:42:13.946Z,27.18
2023-05-22T06:43:13.996Z,27.17
2023-05-22T06:44:14.067Z,27.20
2023-05-22T06:45:14.120Z,27.20
2023-05-22T06:46:14.220Z,27.20
2023-05-22T06:47:14.408Z,27.20
2023-05-22T06:48:14.322Z,27.22
2023-05-22T06:49:14.364Z,27.20
2023-05-22T06:50:14.455Z,27.24
2023-05-22T06:51:14.460Z,27.26
2023-05-22T06:52:14.549Z,27.30
2023-05-22T06:53:14.581Z,27.27
2023-05-22T06:54:14.630Z,27.27
2023-05-22T06:55:14.692Z,27.33
2023-05-22T06:56:14.760Z,27.33
2023-05-22T06:57:14.796Z,27.34
2023-05-22T06:58:14.835Z,27.36
2023-05-22T06:59:14.900Z,27.36
2023-05-22T07:00:15.804Z,27.37
2023-05-22T07:01:15.144Z,27.38
2023-05-22T07:02:15.010Z,27.38
2023-05-22T07:03:15.072Z,27.40
2023-05-22T07:04:15.097Z,27.43
2023-05-22T07:05:15.158Z,27.40
2023-05-22T07:06:15.254Z,27.45
2023-05-22T07:07:15.244Z,27.44
2023-05-22T07:08:15.261Z,27.44
2023-05-22T07:09:15.320Z,27.45
2023-05-22T07:10:15.354Z,27.45
2023-05-22T07:11:15.397Z,27.48
2023-05-22T07:12:15.453Z,27.48
2023-05-22T07:13:15.460Z,27.50
2023-05-22T07:14:15.507Z,27.53
2023-05-22T07:15:15.566Z,27.50
2023-05-22T07:16:15.655Z,27.54
2023-05-22T07:17:15.944Z,27.55
2023-05-22T07:18:15.643Z,27.57
2023-05-22T07:19:15.797Z,27.58
2023-05-22T07:20:15.715Z,27.57
2023-05-22T07:21:15.765Z,27.57
2023-05-22T07:22:15.788Z,27.60
2023-05-22T07:23:15.808Z,27.58
2023-05-22T07:24:15.829Z,27.60
2023-05-22T07:25:15.874Z,27.61
2023-05-22T07:26:15.896Z,27.64
2023-05-22T07:27:15.923Z,27.60
2023-05-22T07:28:15.963Z,27.61
2023-05-22T07:29:15.996Z,27.41
2023-05-22T07:30:16.010Z,27.38
2023-05-22T07:31:16.023Z,26.87
2023-05-22T07:32:16.072Z,26.96
2023-05-22T07:33:16.517Z,26.99
2023-05-22T07:34:16.093Z,27.07
2023-05-22T07:35:16.112Z,27.13
2023-05-22T07:36:16.144Z,27.17
2023-05-22T07:37:16.166Z,27.11
2023-05-22T07:38:16.404Z,27.13
2023-05-22T07:39:16.231Z,27.20
2023-05-22T07:40:16.241Z,27.23
2023-05-22T07:41:16.275Z,27.29
2023-05-22T07:42:16.303Z,27.31
2023-05-22T07:43:16.426Z,27.31
2023-05-22T07:44:16.341Z,27.30
2023-05-22T07:45:16.371Z,27.34
2023-05-22T07:46:16.493Z,27.34
2023-05-22T07:47:16.355Z,27.37
2023-05-22T07:48:16.467Z,27.38
2023-05-22T07:49:16.481Z,27.40
2023-05-22T07:50:16.407Z,27.43
2023-05-22T07:51:16.432Z,27.44
2023-05-22T07:52:16.445Z,27.48
2023-05-22T07:53:16.541Z,27.51
2023-05-22T07:54:16.476Z,27.51
2023-05-22T07:55:16.566Z,27.53
2023-05-22T07:56:16.526Z,27.53
2023-05-22T07:57:16.537Z,27.51
2023-05-22T07:58:16.910Z,27.51
2023-05-22T07:59:16.559Z,27.54
2023-05-22T08:00:16.925Z,27.45
2023-05-22T08:01:16.652Z,27.48
2023-05-22T08:02:16.674Z,27.53
2023-05-22T08:03:17.398Z,27.55
2023-05-22T08:04:16.946Z,27.55
2023-05-22T08:05:16.737Z,27.55
2023-05-22T08:06:16.685Z,27.57
2023-05-22T08:07:16.712Z,27.61
2023-05-22T08:08:16.718Z,27.61
2023-05-22T08:09:16.757Z,27.58
2023-05-22T08:10:16.773Z,27.58
2023-05-22T08:11:16.762Z,27.60
2023-05-22T08:12:16.801Z,27.54
2023-05-22T08:13:16.863Z,27.53
2023-05-22T08:14:16.828Z,27.55
2023-05-22T08:15:16.851Z,27.57
2023-05-22T08:16:16.832Z,27.61
2023-05-22T08:17:16.913Z,27.60
2023-05-22T08:18:16.932Z,27.61
2023-05-22T08:19:16.931Z,27.58
2023-05-22T08:20:16.932Z,27.58
2023-05-22T08:21:16.981Z,27.54
2023-05-22T08:22:16.933Z,27.58
2023-05-22T08:23:17.419Z,27.24
2023-05-22T08:24:16.962Z,27.07
2023-05-22T08:25:16.961Z,26.99
2023-05-22T08:26:16.967Z,27.14
2023-05-22T08:27:16.997Z,27.10
2023-05-22T08:28:17.019Z,27.13
2023-05-22T08:29:17.021Z,27.14
2023-05-22T08:30:17.047Z,27.03
2023-05-22T08:31:17.117Z,26.97
2023-05-22T08:32:17.089Z,26.93
2023-05-22T08:33:17.120Z,26.97
2023-05-22T08:34:17.421Z,26.96
2023-05-22T08:35:17.134Z,27.04
2023-05-22T08:36:17.131Z,27.13
2023-05-22T08:37:17.475Z,27.14
2023-05-22T08:38:17.180Z,27.17
2023-05-22T08:39:17.431Z,27.13
2023-05-22T08:40:17.197Z,27.18
2023-05-22T08:41:17.196Z,27.22
2023-05-22T08:42:17.207Z,27.26
2023-05-22T08:43:17.229Z,27.30
2023-05-22T08:44:17.212Z,27.37
2023-05-22T08:45:17.209Z,27.37
2023-05-22T08:46:17.247Z,27.41
2023-05-22T08:47:17.291Z,27.44
2023-05-22T08:48:17.197Z,27.48
2023-05-22T08:49:17.443Z,27.53
2023-05-22T08:50:17.201Z,27.55
2023-05-22T08:51:17.182Z,27.57
2023-05-22T08:52:17.174Z,27.60
2023-05-22T08:53:17.215Z,27.61
2023-05-22T08:54:17.183Z,27.61
2023-05-22T08:55:17.182Z,27.61
2023-05-22T08:56:17.171Z,27.61
2023-05-22T08:57:17.205Z,27.62
2023-05-22T08:58:17.219Z,27.64
2023-05-22T08:59:17.469Z,27.65
2023-05-22T09:00:17.258Z,27.69
2023-05-22T09:01:17.276Z,27.69
2023-05-22T09:02:17.285Z,27.72
2023-05-22T09:03:17.351Z,27.78
2023-05-22T09:04:17.305Z,27.77
2023-05-22T09:05:17.373Z,27.80
2023-05-22T09:06:17.404Z,27.81
2023-05-22T09:07:17.452Z,27.81
2023-05-22T09:08:20.959Z,27.80
2023-05-22T09:09:17.511Z,27.82
2023-05-22T09:10:17.482Z,27.81
2023-05-22T09:11:17.500Z,27.84
2023-05-22T09:12:17.476Z,27.85
2023-05-22T09:13:17.480Z,27.88
2023-05-22T09:14:17.455Z,27.88
2023-05-22T09:15:17.464Z,27.92
2023-05-22T09:16:17.477Z,27.94
2023-05-22T09:17:17.493Z,27.91
2023-05-22T09:18:17.456Z,27.96
2023-05-22T09:19:17.513Z,27.94
2023-05-22T09:20:17.423Z,27.98
2023-05-22T09:21:28.630Z,27.98
2023-05-22T09:22:18.410Z,27.98
2023-05-22T09:23:17.404Z,28.02
2023-05-22T09:24:17.402Z,28.03
2023-05-22T09:25:17.444Z,28.08
2023-05-22T09:26:17.408Z,28.08
2023-05-22T09:27:17.367Z,28.08
2023-05-22T09:28:17.366Z,28.12
2023-05-22T09:29:17.350Z,28.15
2023-05-22T09:30:17.361Z,28.16
2023-05-22T09:31:17.431Z,28.15
2023-05-22T09:32:17.466Z,28.19
2023-05-22T09:33:18.016Z,28.18
2023-05-22T09:34:17.746Z,28.16
2023-05-22T09:35:17.646Z,28.20
2023-05-22T09:36:17.690Z,28.22
2023-05-22T09:37:17.769Z,28.22
2023-05-22T09:38:17.974Z,28.22
2023-05-22T09:39:17.879Z,28.23
2023-05-22T09:40:17.939Z,28.25
2023-05-22T09:41:17.988Z,28.26
2023-05-22T09:42:18.210Z,28.25
2023-05-22T09:43:18.100Z,28.26
2023-05-22T09:44:18.166Z,28.27
2023-05-22T09:45:18.225Z,28.30
2023-05-22T09:46:18.316Z,28.30
2023-05-22T09:47:18.394Z,28.29
2023-05-22T09:48:18.474Z,28.32
2023-05-22T09:49:18.454Z,28.33
2023-05-22T09:50:18.519Z,28.35
2023-05-22T09:51:18.559Z,28.33
2023-05-22T09:52:18.628Z,28.35
2023-05-22T09:53:18.688Z,28.39
2023-05-22T09:54:18.735Z,28.36
2023-05-22T09:55:18.786Z,28.36
2023-05-22T09:56:24.231Z,28.36
2023-05-22T09:57:20.074Z,28.39
2023-05-22T09:58:18.820Z,28.39
2023-05-22T09:59:18.821Z,28.39
2023-05-22T10:00:18.824Z,28.40
2023-05-22T10:01:18.865Z,28.40
2023-05-22T10:02:18.793Z,28.38
2023-05-22T10:03:18.968Z,28.36
2023-05-22T10:04:18.845Z,28.38
2023-05-22T10:05:18.798Z,28.38
2023-05-22T10:06:18.788Z,28.38
2023-05-22T10:07:18.851Z,28.40
2023-05-22T10:08:18.865Z,28.40
2023-05-22T10:09:19.646Z,28.40
2023-05-22T10:10:18.960Z,28.40
2023-05-22T10:11:19.002Z,28.39
2023-05-22T10:12:19.030Z,28.43
2023-05-22T10:13:19.182Z,28.40
2023-05-22T10:14:19.134Z,28.42
2023-05-22T10:15:19.168Z,28.43
2023-05-22T10:16:19.219Z,28.40
2023-05-22T10:17:19.246Z,28.40
2023-05-22T10:18:19.300Z,28.42
2023-05-22T10:19:19.601Z,28.42
2023-05-22T10:20:19.377Z,28.43
2023-05-22T10:21:19.393Z,28.47
2023-05-22T10:22:19.454Z,28.46
2023-05-22T10:23:19.974Z,28.50
2023-05-22T10:24:19.977Z,28.50
2023-05-22T10:25:19.550Z,28.50
2023-05-22T10:26:19.607Z,28.53
2023-05-22T10:27:19.647Z,28.52
2023-05-22T10:28:19.687Z,28.52
2023-05-22T10:29:20.089Z,28.52
2023-05-22T10:30:19.756Z,28.52
2023-05-22T10:31:19.789Z,28.54
2023-05-22T10:32:19.842Z,28.57
2023-05-22T10:33:20.044Z,28.56
2023-05-22T10:34:19.951Z,28.57
2023-05-22T10:35:19.973Z,28.56
2023-05-22T10:36:20.009Z,28.57
2023-05-22T10:37:21.724Z,28.57
2023-05-22T10:38:20.075Z,28.57
2023-05-22T10:39:20.132Z,28.57
2023-05-22T10:40:20.216Z,28.60
2023-05-22T10:41:20.207Z,28.59
2023-05-22T10:42:20.252Z,28.59
2023-05-22T10:43:20.278Z,28.59
2023-05-22T10:44:20.317Z,28.56
2023-05-22T10:45:20.456Z,28.57
2023-05-22T10:46:20.436Z,28.60
2023-05-22T10:47:20.490Z,28.60
2023-05-22T10:48:20.463Z,28.59
2023-05-22T10:49:20.566Z,28.56
2023-05-22T10:50:20.562Z,28.54
2023-05-22T10:51:20.599Z,28.49
2023-05-22T10:52:20.648Z,28.56
2023-05-22T10:53:20.708Z,28.53
2023-05-22T10:54:20.772Z,28.50
2023-05-22T10:55:20.804Z,28.50
2023-05-22T10:56:23.586Z,28.52
2023-05-22T10:57:20.834Z,28.53
2023-05-22T10:58:20.844Z,28.56
2023-05-22T10:59:20.815Z,28.53
2023-05-22T11:00:20.828Z,28.59
2023-05-22T11:01:20.938Z,28.57
2023-05-22T11:02:20.912Z,28.59
2023-05-22T11:03:21.071Z,28.59
2023-05-22T11:04:20.826Z,28.57
2023-05-22T11:05:20.772Z,28.60
2023-05-22T11:06:20.766Z,28.60
2023-05-22T11:07:20.753Z,28.59
2023-05-22T11:08:20.755Z,28.57
2023-05-22T11:09:20.752Z,28.60
2023-05-22T11:10:20.752Z,28.60
2023-05-22T11:11:20.748Z,28.63
2023-05-22T11:12:20.795Z,28.62
2023-05-22T11:13:21.035Z,28.62
2023-05-22T11:14:20.728Z,28.62
2023-05-22T11:15:20.690Z,28.62
2023-05-22T11:16:20.723Z,28.53
2023-05-22T11:17:20.774Z,28.53
2023-05-22T11:18:21.047Z,28.56
2023-05-22T11:19:23.654Z,28.54
2023-05-22T11:20:21.535Z,28.53
2023-05-22T11:21:20.679Z,28.53
2023-05-22T11:22:20.695Z,28.54
2023-05-22T11:23:20.681Z,28.52
2023-05-22T11:24:20.656Z,28.53
2023-05-22T11:25:20.670Z,28.52
2023-05-22T11:26:20.644Z,28.52
2023-05-22T11:27:20.627Z,28.53
2023-05-22T11:28:20.631Z,28.53
2023-05-22T11:29:20.634Z,28.52
2023-05-22T11:30:20.609Z,28.52
2023-05-22T11:31:20.679Z,28.49
2023-05-22T11:32:20.620Z,28.46
2023-05-22T11:33:21.132Z,28.49
2023-05-22T11:34:20.600Z,28.44
2023-05-22T11:35:20.601Z,28.44
2023-05-22T11:36:20.602Z,28.42
2023-05-22T11:37:20.567Z,28.42
2023-05-22T11:38:20.579Z,28.42
2023-05-22T11:39:20.546Z,28.40
2023-05-22T11:40:20.570Z,28.39
2023-05-22T11:41:20.532Z,28.39
2023-05-22T11:42:20.525Z,28.38
2023-05-22T11:43:20.534Z,28.36
2023-05-22T11:44:20.542Z,28.36
2023-05-22T11:45:20.550Z,28.36
2023-05-22T11:46:20.632Z,28.33
2023-05-22T11:47:20.641Z,28.35
2023-05-22T11:48:20.729Z,28.32
2023-05-22T11:49:20.844Z,28.32
2023-05-22T11:50:33.416Z,28.30
2023-05-22T11:51:21.816Z,28.30
2023-05-22T11:52:20.819Z,28.27
2023-05-22T11:53:20.800Z,28.29
2023-05-22T11:54:20.810Z,28.27
2023-05-22T11:55:20.811Z,28.27
2023-05-22T11:56:20.784Z,28.26
2023-05-22T11:57:20.809Z,28.25
2023-05-22T11:58:20.782Z,28.25
2023-05-22T11:59:20.825Z,28.20
2023-05-22T12:00:20.908Z,28.20
2023-05-22T12:01:20.941Z,28.20
2023-05-22T12:02:21.012Z,28.19
2023-05-22T12:03:21.639Z,28.23
2023-05-22T12:04:21.205Z,28.25
2023-05-22T12:05:21.276Z,28.22
2023-05-22T12:06:21.302Z,28.22
2023-05-22T12:07:21.302Z,28.20
2023-05-22T12:08:21.542Z,28.23
2023-05-22T12:09:21.423Z,28.20
2023-05-22T12:10:21.493Z,28.20
2023-05-22T12:11:21.546Z,28.16
2023-05-22T12:12:22.619Z,28.15
2023-05-22T12:13:21.615Z,28.16
2023-05-22T12:14:21.652Z,28.16
2023-05-22T12:15:21.681Z,28.18
2023-05-22T12:16:21.847Z,28.16
2023-05-22T12:17:21.790Z,28.19
2023-05-22T12:18:21.822Z,28.16
2023-05-22T12:19:21.929Z,28.16
2023-05-22T12:20:21.911Z,28.19
2023-05-22T12:21:22.066Z,28.18
2023-05-22T12:22:23.220Z,28.18
2023-05-22T12:23:22.053Z,28.18
2023-05-22T12:24:22.097Z,28.15
2023-05-22T12:25:22.154Z,28.18
2023-05-22T12:26:22.209Z,28.18
2023-05-22T12:27:22.225Z,28.18
2023-05-22T12:28:22.259Z,28.18
2023-05-22T12:29:22.326Z,28.15
2023-05-22T12:30:22.369Z,28.19
2023-05-22T12:31:22.402Z,28.18
2023-05-22T12:32:22.512Z,28.18
2023-05-22T12:33:22.530Z,28.19
2023-05-22T12:34:22.565Z,28.16
2023-05-22T12:35:22.715Z,28.16
2023-05-22T12:36:22.664Z,28.18
2023-05-22T12:37:22.861Z,28.16
2023-05-22T12:38:22.753Z,28.16
2023-05-22T12:39:22.813Z,28.16
2023-05-22T12:40:22.850Z,28.18
2023-05-22T12:41:22.878Z,28.15
2023-05-22T12:42:22.917Z,28.16
2023-05-22T12:43:22.939Z,28.15
2023-05-22T12:44:22.933Z,28.15
2023-05-22T12:45:22.980Z,28.13
2023-05-22T12:46:23.029Z,28.15
2023-05-22T12:47:23.027Z,28.12
2023-05-22T12:48:23.054Z,28.12
2023-05-22T12:49:23.084Z,28.12
2023-05-22T12:50:23.142Z,28.12
2023-05-22T12:51:23.176Z,28.11
2023-05-22T12:52:23.209Z,28.12